Itariri, Brazil
Current Conditions -  °F | °C
As of 7:00 PM on Tuesday 25 Nov 2014 (Local Time) from SBSP Reporting Station
Thunderstorm Thunderstorm  
Wind Chill: 72°   Ceiling: 900
Heat Index: 72°   Visibility: 0.62mi
Dew Point: 66°   Wind: 9mph
Humidity: 83%   Direction: 70°ENE
Pressure: 29.88"   Gusts: 21mph
Location:  24.29°S, 47.17°W
Report Text: SBSP 252100Z 07008G18KT 030V130 1000 +TSRA BR BKN009 SCT040CB BKN050 22/19 Q1012
Loading
Personal Weather Stations






























Interactive Weather Map New forecast layout! Learn more

10-Day Weather Forecast

Advertisements
Track Severe Weather on mobile